createdAt,value
2017-07-18T00:01:38.209Z,9.00
2017-07-18T00:04:07.057Z,9.00
2017-07-18T00:06:35.472Z,8.90
2017-07-18T00:09:03.819Z,8.80
2017-07-18T00:11:32.144Z,8.80
2017-07-18T00:14:00.477Z,8.80
2017-07-18T00:16:28.808Z,8.80
2017-07-18T00:18:57.248Z,8.70
2017-07-18T00:21:25.533Z,8.80
2017-07-18T00:23:53.955Z,8.90
2017-07-18T00:26:22.328Z,8.90
2017-07-18T00:28:50.618Z,8.80
2017-07-18T00:31:18.956Z,8.80
2017-07-18T00:33:47.248Z,8.60
2017-07-18T00:36:15.863Z,8.60
2017-07-18T00:38:44.200Z,8.60
2017-07-18T00:41:12.485Z,8.50
2017-07-18T00:43:40.767Z,8.40
2017-07-18T00:46:09.097Z,8.40
2017-07-18T00:48:37.499Z,8.50
2017-07-18T00:51:05.884Z,8.40
2017-07-18T00:53:34.171Z,8.40
2017-07-18T00:56:02.459Z,8.30
2017-07-18T00:58:30.851Z,8.30
2017-07-18T01:00:59.188Z,8.40
2017-07-18T01:03:27.520Z,8.30
2017-07-18T01:05:55.837Z,8.30
2017-07-18T01:08:24.154Z,8.30
2017-07-18T01:10:54.903Z,8.30
2017-07-18T01:13:23.500Z,8.20
2017-07-18T01:15:51.846Z,8.30
2017-07-18T01:18:20.686Z,8.20
2017-07-18T01:20:49.027Z,8.30
2017-07-18T01:23:20.596Z,8.40
2017-07-18T01:25:48.967Z,8.40
2017-07-18T01:28:17.286Z,8.20
2017-07-18T01:30:45.780Z,8.10
2017-07-18T01:33:14.108Z,8.00
2017-07-18T01:35:42.396Z,8.00
2017-07-18T01:38:10.737Z,8.00
2017-07-18T01:40:39.088Z,7.90
2017-07-18T01:43:07.415Z,8.00
2017-07-18T01:45:35.704Z,7.90
2017-07-18T01:48:04.033Z,8.00
2017-07-18T01:50:32.481Z,8.20
2017-07-18T01:53:00.787Z,8.00
2017-07-18T01:55:29.896Z,7.90
2017-07-18T01:57:58.285Z,7.90
2017-07-18T02:00:32.517Z,7.90
2017-07-18T02:03:00.803Z,7.90
2017-07-18T02:05:29.185Z,7.90
2017-07-18T02:07:57.681Z,7.80
2017-07-18T02:10:25.969Z,7.70
2017-07-18T02:12:54.324Z,7.70
2017-07-18T02:15:22.748Z,7.80
2017-07-18T02:17:51.096Z,7.90
2017-07-18T02:20:19.441Z,7.80
2017-07-18T02:22:47.721Z,7.70
2017-07-18T02:25:16.104Z,7.70
2017-07-18T02:27:44.391Z,7.70
2017-07-18T02:30:12.744Z,7.60
2017-07-18T02:32:41.080Z,7.70
2017-07-18T02:35:09.374Z,7.70
2017-07-18T02:37:37.696Z,7.60
2017-07-18T02:40:09.037Z,7.50
2017-07-18T02:42:37.373Z,7.70
2017-07-18T02:45:05.656Z,7.70
2017-07-18T02:47:34.088Z,7.60
2017-07-18T02:50:02.369Z,7.60
2017-07-18T02:52:30.696Z,7.50
2017-07-18T02:54:59.973Z,7.70
2017-07-18T02:57:29.125Z,7.60
2017-07-18T02:59:57.486Z,7.60
2017-07-18T03:02:26.585Z,7.40
2017-07-18T03:04:54.977Z,7.40
2017-07-18T03:07:24.392Z,7.50
2017-07-18T03:09:52.784Z,7.60
2017-07-18T03:12:21.073Z,7.50
2017-07-18T03:14:49.400Z,7.50
2017-07-18T03:17:17.688Z,7.50
2017-07-18T03:19:46.024Z,7.50
2017-07-18T03:22:14.430Z,7.40
2017-07-18T03:24:42.720Z,7.30
2017-07-18T03:27:11.043Z,7.40
2017-07-18T03:29:39.323Z,7.40
2017-07-18T03:32:08.449Z,7.30
2017-07-18T03:34:36.730Z,7.30
2017-07-18T03:37:05.204Z,7.40
2017-07-18T03:39:34.337Z,7.40
2017-07-18T03:42:03.712Z,7.30
2017-07-18T03:44:32.003Z,7.40
2017-07-18T03:47:00.349Z,7.50
2017-07-18T03:49:28.649Z,7.60
2017-07-18T03:51:56.964Z,7.50
2017-07-18T03:54:25.297Z,7.40
2017-07-18T03:56:53.623Z,7.40
2017-07-18T03:59:21.928Z,7.50
2017-07-18T04:01:50.324Z,7.40
2017-07-18T04:04:18.666Z,7.40
2017-07-18T04:06:47.010Z,7.40
2017-07-18T04:09:15.391Z,7.50
2017-07-18T04:11:43.716Z,7.50
2017-07-18T04:14:12.030Z,7.40
2017-07-18T04:16:40.325Z,7.50
2017-07-18T04:19:08.656Z,7.60
2017-07-18T04:21:36.945Z,7.70
2017-07-18T04:24:05.376Z,7.60
2017-07-18T04:26:33.663Z,7.60
2017-07-18T04:29:01.952Z,7.60
2017-07-18T04:31:30.300Z,7.70
2017-07-18T04:33:58.597Z,7.80
2017-07-18T04:36:26.936Z,7.80
2017-07-18T04:38:55.225Z,7.80
2017-07-18T04:41:23.509Z,7.90
2017-07-18T04:43:51.859Z,7.80
2017-07-18T04:46:20.241Z,7.80
2017-07-18T04:48:48.581Z,7.80
2017-07-18T04:51:16.903Z,8.00
2017-07-18T04:53:45.199Z,8.10
2017-07-18T04:56:13.514Z,8.00
2017-07-18T04:58:42.621Z,8.10
2017-07-18T05:01:11.670Z,8.20
2017-07-18T05:03:39.996Z,8.20
2017-07-18T05:06:09.339Z,8.30
2017-07-18T05:08:38.428Z,8.60
2017-07-18T05:11:07.505Z,8.70
2017-07-18T05:13:35.836Z,8.70
2017-07-18T05:16:04.892Z,9.00
2017-07-18T05:18:33.586Z,9.00
2017-07-18T05:21:01.924Z,9.10
2017-07-18T05:23:31.336Z,9.40
2017-07-18T05:25:59.722Z,9.40
2017-07-18T05:28:28.113Z,9.50
2017-07-18T05:30:57.438Z,9.50
2017-07-18T05:33:26.492Z,9.70
2017-07-18T05:35:54.920Z,9.70
2017-07-18T05:38:23.248Z,9.70
2017-07-18T05:40:51.539Z,9.70
2017-07-18T05:43:19.992Z,9.80
2017-07-18T05:45:48.301Z,10.10
2017-07-18T05:48:17.368Z,10.30
2017-07-18T05:50:45.891Z,10.20
2017-07-18T05:53:14.203Z,10.40
2017-07-18T05:55:44.584Z,10.50
2017-07-18T05:58:12.904Z,10.80
2017-07-18T06:00:41.295Z,11.10
2017-07-18T06:03:09.687Z,11.40
2017-07-18T06:05:37.992Z,11.60
2017-07-18T06:08:07.060Z,12.10
2017-07-18T06:10:41.780Z,12.00
2017-07-18T06:13:10.081Z,12.20
2017-07-18T06:15:38.412Z,12.40
2017-07-18T06:18:07.481Z,12.80
2017-07-18T06:20:35.902Z,12.80
2017-07-18T06:23:04.286Z,13.10
2017-07-18T06:25:33.656Z,13.40
2017-07-18T06:28:03.222Z,13.70
2017-07-18T06:30:32.317Z,13.90
2017-07-18T06:33:00.617Z,14.10
2017-07-18T06:35:29.107Z,14.30
2017-07-18T06:37:57.400Z,14.40
2017-07-18T06:40:25.737Z,14.50
2017-07-18T06:42:54.029Z,14.80
2017-07-18T06:45:22.475Z,15.00
2017-07-18T06:47:50.760Z,15.10
2017-07-18T06:50:19.057Z,15.30
2017-07-18T06:52:48.160Z,15.60
2017-07-18T06:55:16.448Z,15.60
2017-07-18T06:57:44.828Z,15.80
2017-07-18T07:00:13.145Z,15.90
2017-07-18T07:02:42.253Z,16.20
2017-07-18T07:05:11.313Z,16.10
2017-07-18T07:07:39.625Z,16.10
2017-07-18T07:10:07.973Z,16.20
2017-07-18T07:12:36.269Z,16.30
2017-07-18T07:15:04.598Z,16.30
2017-07-18T07:17:32.932Z,16.40
2017-07-18T07:20:01.282Z,16.50
2017-07-18T07:22:29.620Z,16.60
2017-07-18T07:24:57.916Z,16.70
2017-07-18T07:27:26.249Z,16.70
2017-07-18T07:29:54.619Z,16.80
2017-07-18T07:32:22.967Z,16.90
2017-07-18T07:34:52.296Z,17.00
2017-07-18T07:37:20.728Z,17.20
2017-07-18T07:39:49.036Z,17.20
2017-07-18T07:42:18.449Z,17.30
2017-07-18T07:44:47.574Z,17.40
2017-07-18T07:47:15.869Z,17.40
2017-07-18T07:49:44.163Z,17.40
2017-07-18T07:52:16.301Z,17.40
2017-07-18T07:54:44.590Z,17.50
2017-07-18T07:57:12.944Z,17.50
2017-07-18T07:59:41.233Z,17.60
2017-07-18T08:02:09.556Z,17.60
2017-07-18T08:04:38.064Z,17.70
2017-07-18T08:07:07.127Z,17.80
2017-07-18T08:09:35.423Z,17.80
2017-07-18T08:12:03.753Z,17.80
2017-07-18T08:14:32.857Z,17.90
2017-07-18T08:17:02.587Z,17.80
2017-07-18T08:19:31.649Z,18.00
2017-07-18T08:21:59.999Z,17.90
2017-07-18T08:24:28.320Z,18.10
2017-07-18T08:26:56.611Z,18.20
2017-07-18T08:29:25.028Z,18.30
2017-07-18T08:31:53.316Z,18.30
2017-07-18T08:34:21.617Z,18.40
2017-07-18T08:36:50.735Z,18.40
2017-07-18T08:39:19.813Z,18.40
2017-07-18T08:41:48.096Z,18.40
2017-07-18T08:44:17.045Z,18.50
2017-07-18T08:46:45.340Z,18.60
2017-07-18T08:49:14.394Z,18.70
2017-07-18T08:51:42.728Z,18.70
2017-07-18T08:54:11.068Z,18.80
2017-07-18T08:56:39.371Z,18.80
2017-07-18T08:59:07.649Z,18.90
2017-07-18T09:01:35.984Z,19.10
2017-07-18T09:04:05.060Z,19.30
2017-07-18T09:06:33.393Z,19.30
2017-07-18T09:09:03.581Z,19.40
2017-07-18T09:11:35.089Z,19.30
2017-07-18T09:14:05.845Z,19.20
2017-07-18T09:16:34.184Z,19.30
2017-07-18T09:19:02.580Z,19.50
2017-07-18T09:21:30.888Z,19.90
2017-07-18T09:23:59.255Z,19.90
2017-07-18T09:26:27.552Z,20.00
2017-07-18T09:28:55.938Z,20.30
2017-07-18T09:31:24.284Z,20.60
2017-07-18T09:33:52.571Z,20.80
2017-07-18T09:36:20.925Z,21.00
2017-07-18T09:38:49.272Z,21.20
2017-07-18T09:41:17.687Z,21.00
2017-07-18T09:43:45.984Z,21.20
2017-07-18T09:46:14.528Z,21.80
2017-07-18T09:48:42.836Z,22.50
2017-07-18T09:51:11.123Z,22.60
2017-07-18T09:53:39.488Z,22.20
2017-07-18T09:56:07.840Z,22.40
2017-07-18T09:58:36.200Z,22.30
2017-07-18T10:01:05.555Z,22.20
2017-07-18T10:03:33.834Z,22.00
2017-07-18T10:06:02.173Z,22.50
2017-07-18T10:08:32.097Z,22.70
2017-07-18T10:11:00.435Z,22.70
2017-07-18T10:13:28.821Z,23.10
2017-07-18T10:15:57.213Z,22.60
2017-07-18T10:18:25.521Z,22.50
2017-07-18T10:20:54.581Z,22.80
2017-07-18T10:23:22.912Z,22.80
2017-07-18T10:25:54.904Z,22.70
2017-07-18T10:28:23.241Z,22.40
2017-07-18T10:30:51.561Z,22.20
2017-07-18T10:33:19.888Z,22.60
2017-07-18T10:35:49.292Z,22.80
2017-07-18T10:38:18.550Z,22.70
2017-07-18T10:40:46.899Z,22.40
2017-07-18T10:43:15.232Z,22.60
2017-07-18T10:45:43.583Z,23.20
2017-07-18T10:48:11.916Z,23.80
2017-07-18T10:50:40.282Z,24.30
2017-07-18T10:53:08.640Z,24.60
2017-07-18T10:55:37.007Z,23.60
2017-07-18T10:58:05.296Z,23.80
2017-07-18T11:00:33.581Z,23.00
2017-07-18T11:03:02.872Z,22.60
2017-07-18T11:05:31.160Z,22.50
2017-07-18T11:07:59.504Z,22.30
2017-07-18T11:10:27.837Z,22.50
2017-07-18T11:12:56.192Z,22.60
2017-07-18T11:15:24.524Z,23.20
2017-07-18T11:17:52.812Z,23.90
2017-07-18T11:20:21.144Z,24.30
2017-07-18T11:22:49.468Z,25.00
2017-07-18T11:25:17.797Z,25.30
2017-07-18T11:27:46.148Z,25.00
2017-07-18T11:30:14.569Z,24.70
2017-07-18T11:32:42.884Z,24.40
2017-07-18T11:35:11.944Z,25.00
2017-07-18T11:37:40.319Z,24.90
2017-07-18T11:40:08.610Z,25.40
2017-07-18T11:42:36.949Z,25.70
2017-07-18T11:45:05.309Z,26.00
2017-07-18T11:47:33.638Z,26.80
2017-07-18T11:50:02.740Z,25.80
2017-07-18T11:52:31.019Z,25.80
2017-07-18T11:54:59.361Z,25.80
2017-07-18T11:57:28.537Z,26.10
2017-07-18T11:59:57.723Z,25.70
2017-07-18T12:02:26.016Z,25.70
2017-07-18T12:04:54.405Z,26.00
2017-07-18T12:07:22.773Z,26.20
2017-07-18T12:09:51.086Z,26.30
2017-07-18T12:12:19.380Z,26.00
2017-07-18T12:14:47.759Z,26.40
2017-07-18T12:17:16.140Z,26.50
2017-07-18T12:19:44.529Z,26.60
2017-07-18T12:22:12.855Z,27.00
2017-07-18T12:24:41.911Z,26.70
2017-07-18T12:27:10.258Z,26.70
2017-07-18T12:29:39.308Z,27.60
2017-07-18T12:32:07.599Z,27.60
2017-07-18T12:34:35.959Z,27.40
2017-07-18T12:37:04.310Z,26.90
2017-07-18T12:39:32.695Z,27.20
2017-07-18T12:42:01.020Z,27.60
2017-07-18T12:44:29.354Z,28.00
2017-07-18T12:46:57.666Z,28.00
2017-07-18T12:49:25.996Z,28.40
2017-07-18T12:51:54.331Z,28.60
2017-07-18T12:54:22.735Z,29.00
2017-07-18T12:56:51.060Z,28.20
2017-07-18T12:59:20.400Z,28.70
2017-07-18T13:01:48.728Z,29.30
2017-07-18T13:04:17.068Z,28.80
2017-07-18T13:06:45.397Z,27.50
2017-07-18T13:09:13.683Z,27.00
2017-07-18T13:11:43.110Z,27.00
2017-07-18T13:14:11.398Z,26.50
2017-07-18T13:16:39.696Z,27.10
2017-07-18T13:19:08.041Z,27.50
2017-07-18T13:21:36.371Z,28.30
2017-07-18T13:24:04.772Z,28.80
2017-07-18T13:26:34.068Z,29.10
2017-07-18T13:29:02.873Z,29.00
2017-07-18T13:31:31.165Z,28.40
2017-07-18T13:33:59.505Z,27.60
2017-07-18T13:36:27.843Z,27.00
2017-07-18T13:38:56.176Z,25.90
2017-07-18T13:41:24.516Z,25.40
2017-07-18T13:43:53.964Z,25.20
2017-07-18T13:46:22.275Z,26.40
2017-07-18T13:48:50.608Z,26.90
2017-07-18T13:51:18.951Z,27.90
2017-07-18T13:53:47.728Z,29.00
2017-07-18T13:56:16.783Z,29.50
2017-07-18T13:58:45.117Z,29.50
2017-07-18T14:01:14.241Z,28.50
2017-07-18T14:03:42.536Z,28.50
2017-07-18T14:06:10.832Z,28.80
2017-07-18T14:08:39.151Z,29.40
2017-07-18T14:11:09.641Z,29.00
2017-07-18T14:13:37.936Z,28.20
2017-07-18T14:16:07.196Z,27.50
2017-07-18T14:18:35.495Z,27.50
2017-07-18T14:21:03.899Z,27.10
2017-07-18T14:23:32.220Z,26.70
2017-07-18T14:26:00.527Z,26.30
2017-07-18T14:28:28.964Z,26.50
2017-07-18T14:30:57.315Z,27.30
2017-07-18T14:33:25.605Z,27.40
2017-07-18T14:35:53.890Z,27.40
2017-07-18T14:38:23.280Z,27.80
2017-07-18T14:40:51.613Z,28.50
2017-07-18T14:43:19.907Z,28.90
2017-07-18T14:45:48.332Z,28.60
2017-07-18T14:48:16.621Z,27.30
2017-07-18T14:50:44.912Z,26.70
2017-07-18T14:53:13.262Z,26.60
2017-07-18T14:55:41.557Z,26.40
2017-07-18T14:58:09.889Z,26.90
2017-07-18T15:00:38.175Z,27.70
2017-07-18T15:03:07.269Z,28.60
2017-07-18T15:05:35.582Z,28.50
2017-07-18T15:08:05.175Z,28.70
2017-07-18T15:10:34.183Z,27.90
2017-07-18T15:13:02.567Z,27.50
2017-07-18T15:15:30.895Z,27.00
2017-07-18T15:17:59.248Z,27.00
2017-07-18T15:20:27.576Z,26.80
2017-07-18T15:22:59.739Z,27.00
2017-07-18T15:25:28.933Z,27.60
2017-07-18T15:27:57.281Z,27.50
2017-07-18T15:30:25.656Z,28.10
2017-07-18T15:32:53.980Z,27.90
2017-07-18T15:35:22.276Z,27.50
2017-07-18T15:37:50.568Z,26.90
2017-07-18T15:40:18.913Z,26.80
2017-07-18T15:42:47.256Z,27.00
2017-07-18T15:45:15.644Z,27.30
2017-07-18T15:47:43.943Z,27.10
2017-07-18T15:50:12.330Z,27.20
2017-07-18T15:52:40.656Z,27.60
2017-07-18T15:55:08.947Z,27.30
2017-07-18T15:57:37.296Z,27.40
2017-07-18T16:00:06.517Z,27.00
2017-07-18T16:02:35.635Z,27.00
2017-07-18T16:05:03.991Z,27.00
2017-07-18T16:07:32.305Z,27.80
2017-07-18T16:10:01.361Z,27.90
2017-07-18T16:12:29.706Z,27.90
2017-07-18T16:14:58.816Z,28.50
2017-07-18T16:17:27.946Z,27.00
2017-07-18T16:19:56.233Z,27.00
2017-07-18T16:22:24.573Z,27.00
2017-07-18T16:24:52.867Z,28.00
2017-07-18T16:27:21.163Z,28.20
2017-07-18T16:29:49.499Z,28.40
2017-07-18T16:32:17.851Z,28.40
2017-07-18T16:34:46.140Z,28.30
2017-07-18T16:37:15.197Z,28.30
2017-07-18T16:39:43.628Z,28.30
2017-07-18T16:42:11.961Z,28.10
2017-07-18T16:44:40.247Z,28.20
2017-07-18T16:47:08.596Z,28.20
2017-07-18T16:49:36.891Z,28.50
2017-07-18T16:52:05.185Z,28.50
2017-07-18T16:54:34.308Z,28.60
2017-07-18T16:57:03.364Z,28.60
2017-07-18T16:59:31.780Z,28.60
2017-07-18T17:02:00.150Z,28.50
2017-07-18T17:04:28.463Z,28.50
2017-07-18T17:06:56.793Z,28.60
2017-07-18T17:09:25.132Z,28.30
2017-07-18T17:11:53.422Z,28.10
2017-07-18T17:14:21.819Z,28.40
2017-07-18T17:16:50.113Z,28.80
2017-07-18T17:19:19.765Z,28.50
2017-07-18T17:21:48.097Z,28.30
2017-07-18T17:24:16.607Z,27.50
2017-07-18T17:26:45.004Z,27.80
2017-07-18T17:29:13.308Z,28.30
2017-07-18T17:31:42.413Z,27.90
2017-07-18T17:34:11.500Z,27.80
2017-07-18T17:36:39.871Z,28.30
2017-07-18T17:39:08.166Z,28.30
2017-07-18T17:41:36.459Z,28.50
2017-07-18T17:44:06.094Z,28.10
2017-07-18T17:46:37.496Z,27.80
2017-07-18T17:49:05.971Z,27.50
2017-07-18T17:51:34.733Z,27.80
2017-07-18T17:54:03.465Z,27.40
2017-07-18T17:56:32.949Z,26.70
2017-07-18T17:59:01.288Z,26.60
2017-07-18T18:01:29.835Z,26.10
2017-07-18T18:04:00.396Z,25.90
2017-07-18T18:06:29.047Z,25.80
2017-07-18T18:08:57.773Z,26.00
2017-07-18T18:11:26.488Z,26.10
2017-07-18T18:13:55.243Z,26.20
2017-07-18T18:16:23.855Z,25.80
2017-07-18T18:18:52.524Z,25.40
2017-07-18T18:21:25.718Z,25.30
2017-07-18T18:23:54.502Z,25.00
2017-07-18T18:26:23.047Z,24.80
2017-07-18T18:28:51.484Z,24.60
2017-07-18T18:31:19.838Z,24.60
2017-07-18T18:33:48.241Z,24.40
2017-07-18T18:36:16.524Z,24.30
2017-07-18T18:38:44.851Z,24.10
2017-07-18T18:41:13.189Z,24.10
2017-07-18T18:43:41.481Z,23.50
2017-07-18T18:46:09.827Z,23.30
2017-07-18T18:48:38.212Z,23.20
2017-07-18T18:51:06.543Z,23.00
2017-07-18T18:53:34.924Z,22.70
2017-07-18T18:56:03.213Z,22.50
2017-07-18T18:58:31.512Z,22.40
2017-07-18T19:00:59.916Z,22.10
2017-07-18T19:03:28.339Z,21.90
2017-07-18T19:05:56.720Z,21.90
2017-07-18T19:08:25.048Z,21.70
2017-07-18T19:10:53.376Z,21.50
2017-07-18T19:13:21.791Z,21.40
2017-07-18T19:15:50.100Z,21.30
2017-07-18T19:18:19.193Z,20.90
2017-07-18T19:20:47.533Z,20.90
2017-07-18T19:23:15.826Z,20.70
2017-07-18T19:25:44.158Z,20.60
2017-07-18T19:28:12.656Z,20.40
2017-07-18T19:30:40.948Z,20.10
2017-07-18T19:33:10.199Z,19.80
2017-07-18T19:35:38.523Z,19.80
2017-07-18T19:38:06.832Z,19.70
2017-07-18T19:40:35.165Z,19.70
2017-07-18T19:43:03.516Z,19.60
2017-07-18T19:45:31.840Z,19.50
2017-07-18T19:48:00.206Z,19.30
2017-07-18T19:50:28.508Z,19.00
2017-07-18T19:52:57.619Z,18.70
2017-07-18T19:55:25.982Z,18.60
2017-07-18T19:57:54.276Z,18.60
2017-07-18T20:00:23.405Z,18.20
2017-07-18T20:02:51.718Z,18.20
2017-07-18T20:05:20.240Z,18.00
2017-07-18T20:07:48.559Z,17.90
2017-07-18T20:10:16.896Z,17.90
2017-07-18T20:12:45.200Z,17.90
2017-07-18T20:15:13.492Z,17.80
2017-07-18T20:17:41.824Z,17.70
2017-07-18T20:20:10.948Z,17.70
2017-07-18T20:22:39.407Z,17.60
2017-07-18T20:25:07.700Z,17.40
2017-07-18T20:27:35.996Z,17.30
2017-07-18T20:30:05.106Z,17.00
2017-07-18T20:32:34.201Z,16.90
2017-07-18T20:35:02.694Z,16.90
2017-07-18T20:37:30.985Z,16.90
2017-07-18T20:39:59.283Z,16.80
2017-07-18T20:42:28.407Z,16.60
2017-07-18T20:44:57.462Z,16.60
2017-07-18T20:47:25.739Z,16.50
2017-07-18T20:49:54.199Z,16.50
2017-07-18T20:52:22.675Z,16.40
2017-07-18T20:54:51.355Z,16.40
2017-07-18T20:57:19.640Z,16.30
2017-07-18T20:59:47.971Z,16.20
2017-07-18T21:02:16.266Z,16.10
2017-07-18T21:04:44.609Z,16.00
2017-07-18T21:07:12.892Z,16.00
2017-07-18T21:09:41.182Z,16.00
2017-07-18T21:12:09.550Z,16.00
2017-07-18T21:14:37.857Z,15.90
2017-07-18T21:17:06.349Z,15.90
2017-07-18T21:19:34.699Z,15.80
2017-07-18T21:22:02.999Z,15.70
2017-07-18T21:24:31.356Z,15.70
2017-07-18T21:27:01.584Z,15.60
2017-07-18T21:29:29.881Z,15.50
2017-07-18T21:31:58.463Z,15.50
2017-07-18T21:34:26.764Z,15.40
2017-07-18T21:36:55.052Z,15.50
2017-07-18T21:39:23.384Z,15.40
2017-07-18T21:41:51.734Z,15.30
2017-07-18T21:44:20.046Z,15.30
2017-07-18T21:46:48.358Z,15.20
2017-07-18T21:49:16.705Z,15.20
2017-07-18T21:51:45.019Z,15.10
2017-07-18T21:54:13.358Z,15.00
2017-07-18T21:56:41.831Z,15.00
2017-07-18T21:59:10.241Z,15.00
2017-07-18T22:01:38.640Z,15.00
2017-07-18T22:04:07.112Z,14.90
2017-07-18T22:06:35.402Z,14.90
2017-07-18T22:09:03.766Z,14.80
2017-07-18T22:11:32.077Z,14.80
2017-07-18T22:14:00.403Z,14.80
2017-07-18T22:16:30.220Z,14.80
2017-07-18T22:18:59.321Z,14.60
2017-07-18T22:21:27.849Z,14.60
2017-07-18T22:23:56.189Z,14.60
2017-07-18T22:26:24.536Z,14.60
2017-07-18T22:28:56.363Z,14.60
2017-07-18T22:31:24.765Z,14.60
2017-07-18T22:33:53.973Z,14.50
2017-07-18T22:36:22.464Z,14.50
2017-07-18T22:38:50.789Z,14.50
2017-07-18T22:41:19.092Z,14.40
2017-07-18T22:43:47.520Z,14.40
2017-07-18T22:46:15.842Z,14.30
2017-07-18T22:48:44.165Z,14.40
2017-07-18T22:51:12.529Z,14.30
2017-07-18T22:53:40.846Z,14.40
2017-07-18T22:56:11.327Z,14.30
2017-07-18T22:58:39.626Z,14.30
2017-07-18T23:01:08.747Z,14.20
2017-07-18T23:03:38.115Z,14.10
2017-07-18T23:06:06.463Z,14.10
2017-07-18T23:08:35.198Z,14.10
2017-07-18T23:11:03.727Z,14.10
2017-07-18T23:13:32.839Z,14.00
2017-07-18T23:16:01.288Z,14.00
2017-07-18T23:18:30.010Z,14.10
2017-07-18T23:20:58.505Z,14.00
2017-07-18T23:23:27.051Z,14.00
2017-07-18T23:25:55.530Z,14.00
2017-07-18T23:28:23.835Z,13.90
2017-07-18T23:30:52.294Z,13.90
2017-07-18T23:33:21.400Z,13.90
2017-07-18T23:35:49.713Z,13.90
2017-07-18T23:38:18.079Z,13.90
2017-07-18T23:40:47.173Z,13.80
2017-07-18T23:43:17.602Z,13.80
2017-07-18T23:45:45.977Z,13.90
2017-07-18T23:48:14.308Z,13.90
2017-07-18T23:50:43.639Z,13.80
2017-07-18T23:53:12.085Z,13.70
2017-07-18T23:55:40.431Z,13.70
2017-07-18T23:58:08.740Z,13.70
